Time;durP1;ratioP1;P1;durP2;ratioP2;P2;SDS_P1;SDS_P2;PMS_P1;PMS_P2;Temp;Humidity;BMP_temperature;BMP_pressure;BME280_temperature;BME280_humidity;BME280_pressure;Samples;Min_cycle;Max_cycle;Signal;HPM_P1;HPM_P2
2021/12/08 00:00:36;;;;;;;1.00;0.95;;;6.40;53.80;;;;;;5110419;27;34530;-76
2021/12/08 00:03:05;;;;;;;0.85;0.85;;;6.50;53.90;;;;;;5093060;27;35503;-76
2021/12/08 00:05:31;;;;;;;0.80;0.80;;;6.50;55.10;;;;;;5108961;27;34127;-76
2021/12/08 00:07:58;;;;;;;0.80;0.80;;;6.50;55.40;;;;;;5093028;27;34083;-76
2021/12/08 00:13:09;;;;;;;1.20;1.10;;;6.60;55.00;;;;;;5126488;27;34632;-76
2021/12/08 00:15:40;;;;;;;1.00;1.00;;;6.70;54.80;;;;;;5108902;27;34260;-76
2021/12/08 00:18:09;;;;;;;2.05;1.30;;;6.70;55.30;;;;;;5093071;27;34485;-76
2021/12/08 00:20:37;;;;;;;2.22;1.27;;;6.80;55.10;;;;;;5108627;27;34075;-76
2021/12/08 00:23:04;;;;;;;1.88;1.23;;;6.90;55.40;;;;;;5108232;27;35702;-76
2021/12/08 00:25:31;;;;;;;3.58;1.50;;;7.00;55.90;;;;;;5127657;27;34215;-76
2021/12/08 00:27:58;;;;;;;2.28;1.13;;;7.00;55.20;;;;;;5091240;27;34271;-76
2021/12/08 00:30:24;;;;;;;1.75;1.40;;;7.00;55.60;;;;;;5091755;27;34200;-75
2021/12/08 00:32:51;;;;;;;1.40;1.08;;;7.10;55.20;;;;;;5109781;27;35601;-75
2021/12/08 00:35:18;;;;;;;2.63;1.40;;;7.10;55.10;;;;;;5128018;27;34350;-76
2021/12/08 00:37:44;;;;;;;1.52;1.23;;;7.10;55.00;;;;;;5109925;27;34355;-76
2021/12/08 00:40:13;;;;;;;2.05;1.73;;;7.20;55.00;;;;;;5109386;27;34228;-76
2021/12/08 00:42:40;;;;;;;3.63;1.48;;;7.20;55.10;;;;;;5092158;27;35521;-76
2021/12/08 00:45:08;;;;;;;2.58;1.50;;;7.30;54.90;;;;;;5109390;27;34259;-76
2021/12/08 00:47:34;;;;;;;1.45;1.30;;;7.30;54.80;;;;;;5091460;27;34205;-76
2021/12/08 00:50:00;;;;;;;2.00;1.42;;;7.40;54.50;;;;;;5127609;27;34176;-76
2021/12/08 00:52:28;;;;;;;3.50;1.50;;;7.40;54.50;;;;;;5108167;27;35806;-76
2021/12/08 00:54:56;;;;;;;1.23;1.10;;;7.50;54.50;;;;;;5108203;27;34321;-76
2021/12/08 00:57:22;;;;;;;2.65;1.42;;;7.50;54.50;;;;;;5091951;27;34281;-76
2021/12/08 00:59:48;;;;;;;1.63;1.30;;;7.40;54.40;;;;;;5092094;27;34276;-76
2021/12/08 01:02:14;;;;;;;2.10;1.33;;;7.50;54.40;;;;;;5127563;27;35215;-76
2021/12/08 01:04:40;;;;;;;2.45;1.45;;;7.50;55.20;;;;;;5109869;27;34310;-76
2021/12/08 01:07:06;;;;;;;1.95;1.25;;;7.40;54.50;;;;;;5091731;27;34263;-76
2021/12/08 01:09:33;;;;;;;1.45;1.20;;;7.50;54.60;;;;;;5109281;27;34098;-76
2021/12/08 01:12:01;;;;;;;3.63;1.15;;;7.50;54.60;;;;;;5108821;27;35779;-76
2021/12/08 01:14:31;;;;;;;4.13;1.30;;;7.50;54.70;;;;;;5091639;27;34100;-76
2021/12/08 01:16:58;;;;;;;3.00;1.40;;;7.50;55.30;;;;;;5092484;27;34225;-76
2021/12/08 01:19:24;;;;;;;1.25;1.15;;;7.60;54.80;;;;;;5109829;27;33746;-76
2021/12/08 01:21:51;;;;;;;1.85;1.10;;;7.60;54.70;;;;;;5127238;27;34184;-76
2021/12/08 01:24:17;;;;;;;5.07;1.27;;;7.60;54.70;;;;;;5127727;27;34207;-76
2021/12/08 01:26:43;;;;;;;1.95;1.30;;;7.60;54.80;;;;;;5128974;27;34324;-76
2021/12/08 01:29:09;;;;;;;2.78;1.35;;;7.70;54.80;;;;;;5127264;27;34377;-76
2021/12/08 01:31:39;;;;;;;2.22;1.17;;;7.70;54.90;;;;;;5108785;27;36358;-76
2021/12/08 01:34:05;;;;;;;2.42;1.20;;;7.70;54.70;;;;;;5108322;27;34279;-76
2021/12/08 01:36:31;;;;;;;2.65;1.33;;;7.80;54.70;;;;;;5126991;27;34247;-76
2021/12/08 01:38:57;;;;;;;3.30;1.38;;;7.80;54.70;;;;;;5126941;27;34458;-76
2021/12/08 01:41:25;;;;;;;6.60;1.30;;;7.80;54.70;;;;;;5108558;27;35509;-76
2021/12/08 01:46:33;;;;;;;6.28;1.10;;;7.90;54.70;;;;;;5110569;27;34171;-76
2021/12/08 01:49:01;;;;;;;4.88;1.42;;;7.90;54.70;;;;;;5108278;27;34154;-76
2021/12/08 01:51:28;;;;;;;3.03;1.08;;;7.90;54.60;;;;;;5107958;27;36885;-76
2021/12/08 01:53:55;;;;;;;7.25;1.27;;;7.90;54.60;;;;;;5091488;27;34249;-76
2021/12/08 01:56:26;;;;;;;4.00;1.20;;;7.90;54.70;;;;;;5107738;27;34171;-76
2021/12/08 01:58:52;;;;;;;2.65;0.98;;;7.90;54.70;;;;;;5127242;27;34181;-76
2021/12/08 02:01:24;;;;;;;4.65;1.20;;;7.90;54.70;;;;;;5126663;27;34151;-76
2021/12/08 02:03:50;;;;;;;3.22;1.13;;;7.90;54.70;;;;;;5108093;27;34339;-76
2021/12/08 02:06:18;;;;;;;7.57;1.42;;;8.00;54.70;;;;;;5126175;27;34280;-76
2021/12/08 02:08:45;;;;;;;5.68;1.10;;;8.00;55.30;;;;;;5126419;27;34306;-76
2021/12/08 02:11:11;;;;;;;4.40;1.45;;;8.00;54.60;;;;;;5091079;27;35873;-76
2021/12/08 02:13:40;;;;;;;4.72;1.23;;;8.00;54.70;;;;;;5108372;27;34166;-76
2021/12/08 02:16:10;;;;;;;4.22;1.33;;;8.00;54.70;;;;;;5107666;27;34360;-76
2021/12/08 02:18:38;;;;;;;3.83;1.20;;;8.00;54.60;;;;;;5090987;27;34302;-76
2021/12/08 02:21:21;;;;;;;5.68;1.35;;;8.00;54.60;;;;;;5107807;27;36667;-76
2021/12/08 02:23:47;;;;;;;5.93;1.40;;;8.10;54.70;;;;;;5092751;27;34166;-76
2021/12/08 02:26:13;;;;;;;5.47;1.30;;;8.10;54.70;;;;;;5126969;27;34269;-76
2021/12/08 02:28:39;;;;;;;3.42;1.55;;;8.00;54.60;;;;;;5127588;27;34340;-76
2021/12/08 02:31:09;;;;;;;3.47;1.17;;;8.00;54.60;;;;;;5091509;27;35632;-76
2021/12/08 02:47:13;;;;;;;5.35;1.38;;;8.20;54.70;;;;;;5125998;27;34226;-76
2021/12/08 02:49:39;;;;;;;2.47;0.95;;;8.30;54.70;;;;;;5092076;27;34261;-77
2021/12/08 02:52:08;;;;;;;2.58;0.90;;;8.20;54.30;;;;;;5105310;27;35557;-77
2021/12/08 02:54:38;;;;;;;2.22;0.80;;;8.20;53.90;;;;;;5107144;27;34245;-77
2021/12/08 02:57:05;;;;;;;1.08;0.60;;;8.10;54.00;;;;;;5125543;27;34355;-77
2021/12/08 02:59:31;;;;;;;0.93;0.60;;;8.00;53.90;;;;;;5088868;27;34386;-77
2021/12/08 03:01:57;;;;;;;0.57;0.50;;;7.90;54.00;;;;;;5123907;27;35357;-77
2021/12/08 03:04:23;;;;;;;1.85;0.43;;;7.90;54.20;;;;;;5106114;27;34178;-77
2021/12/08 03:06:49;;;;;;;0.40;0.40;;;7.80;53.80;;;;;;5105608;27;34107;-78
2021/12/08 03:09:16;;;;;;;4.10;0.80;;;7.70;53.80;;;;;;5106677;27;34153;-77
2021/12/08 03:11:42;;;;;;;0.45;0.40;;;7.70;53.80;;;;;;5124935;27;34190;-77
2021/12/08 03:14:12;;;;;;;2.15;0.68;;;7.60;53.90;;;;;;5107980;27;34229;-77
2021/12/08 03:16:42;;;;;;;4.47;0.60;;;7.60;53.50;;;;;;5124951;27;34117;-77
2021/12/08 03:19:09;;;;;;;1.30;0.63;;;7.50;53.70;;;;;;5106898;27;34436;-77
2021/12/08 03:21:35;;;;;;;1.85;0.57;;;7.50;53.70;;;;;;5089300;27;34580;-77
2021/12/08 03:24:11;;;;;;;2.20;0.70;;;7.50;53.70;;;;;;5105820;27;34333;-77
2021/12/08 03:26:48;;;;;;;2.30;0.50;;;7.50;53.80;;;;;;5107898;27;34218;-77
2021/12/08 03:29:22;;;;;;;1.10;0.47;;;7.40;53.60;;;;;;5089385;27;34451;-77
2021/12/08 03:31:51;;;;;;;0.77;0.50;;;7.40;53.50;;;;;;5105634;27;35915;-77
2021/12/08 03:34:20;;;;;;;3.45;0.52;;;7.40;53.50;;;;;;5104902;27;34342;-77
2021/12/08 03:36:48;;;;;;;2.53;0.90;;;7.30;53.70;;;;;;5105692;27;33884;-77
2021/12/08 03:39:14;;;;;;;1.05;0.50;;;7.30;53.70;;;;;;5104652;27;34582;-77
2021/12/08 03:41:40;;;;;;;1.60;0.60;;;7.30;53.60;;;;;;5123192;27;34166;-77
2021/12/08 03:44:06;;;;;;;1.00;0.60;;;7.20;53.70;;;;;;5105339;27;34214;-77
2021/12/08 03:46:39;;;;;;;2.03;0.50;;;7.10;53.80;;;;;;5123840;27;34228;-76
2021/12/08 03:49:09;;;;;;;0.43;0.40;;;7.10;53.80;;;;;;5123692;27;34359;-77
2021/12/08 03:51:36;;;;;;;2.33;0.57;;;7.10;53.90;;;;;;5106043;27;34482;-77
2021/12/08 03:54:03;;;;;;;1.75;0.50;;;7.00;53.80;;;;;;5105131;27;34429;-77
2021/12/08 03:56:29;;;;;;;1.42;0.60;;;6.90;53.90;;;;;;5123891;27;34245;-77
2021/12/08 03:58:55;;;;;;;1.85;0.90;;;6.80;53.90;;;;;;5105192;27;34216;-77
2021/12/08 04:01:21;;;;;;;0.85;0.50;;;6.80;53.90;;;;;;5122929;27;34288;-77
2021/12/08 04:03:50;;;;;;;2.40;0.70;;;6.70;54.10;;;;;;5107554;27;34152;-77
2021/12/08 04:06:30;;;;;;;2.83;0.82;;;6.60;54.10;;;;;;5108115;27;34286;-77
2021/12/08 04:08:57;;;;;;;0.70;0.38;;;6.60;54.20;;;;;;5078243;27;34522;-77
2021/12/08 04:11:24;;;;;;;2.13;0.47;;;6.50;54.30;;;;;;5108667;27;35723;-77
2021/12/08 04:13:57;;;;;;;0.85;0.57;;;6.50;54.30;;;;;;5091877;27;34325;-77
2021/12/08 04:16:28;;;;;;;1.08;0.77;;;6.40;54.20;;;;;;5108472;27;34368;-77
2021/12/08 04:18:57;;;;;;;2.50;0.50;;;6.40;54.30;;;;;;5092302;27;34577;-77
2021/12/08 04:21:25;;;;;;;1.95;0.63;;;6.30;54.30;;;;;;5109314;27;35186;-77
2021/12/08 04:23:52;;;;;;;0.93;0.68;;;6.30;54.40;;;;;;5108512;27;34087;-77
2021/12/08 04:26:29;;;;;;;2.38;0.82;;;6.20;54.30;;;;;;5108401;27;34339;-77
2021/12/08 04:28:55;;;;;;;1.23;0.40;;;6.20;54.30;;;;;;5092549;27;34208;-77
2021/12/08 04:31:30;;;;;;;1.30;0.60;;;6.10;54.40;;;;;;5108794;27;35536;-77
2021/12/08 04:34:01;;;;;;;2.13;0.60;;;6.10;54.40;;;;;;5091609;27;34244;-77
2021/12/08 04:36:38;;;;;;;1.48;0.50;;;6.00;54.30;;;;;;5092511;27;34319;-77
2021/12/08 04:39:11;;;;;;;1.70;0.40;;;6.00;54.40;;;;;;5109709;27;34427;-77
2021/12/08 04:41:42;;;;;;;3.35;0.50;;;5.90;54.40;;;;;;5127041;27;35106;-77
2021/12/08 04:44:24;;;;;;;0.80;0.45;;;5.90;54.50;;;;;;5127381;27;34427;-77
2021/12/08 04:47:17;;;;;;;0.55;0.40;;;5.80;54.30;;;;;;5126866;27;34110;-77
2021/12/08 04:50:18;;;;;;;1.70;0.70;;;5.80;54.50;;;;;;5112312;27;34448;-77
2021/12/08 04:52:51;;;;;;;2.15;0.75;;;5.70;54.50;;;;;;5112261;27;34185;-77
2021/12/08 05:01:13;;;;;;;5.93;0.98;;;5.50;54.60;;;;;;5112296;27;34211;-77
2021/12/08 05:06:45;;;;;;;0.65;0.43;;;5.40;54.70;;;;;;5127212;27;34149;-77
2021/12/08 05:09:17;;;;;;;0.70;0.50;;;5.40;54.80;;;;;;5109016;27;34204;-77
2021/12/08 05:11:48;;;;;;;4.72;0.55;;;5.30;54.80;;;;;;5075812;27;33995;-77
2021/12/08 05:14:22;;;;;;;5.20;1.52;;;5.30;54.90;;;;;;5090146;27;35877;-77
2021/12/08 05:16:54;;;;;;;3.33;0.57;;;5.30;54.90;;;;;;5109200;27;34071;-77
2021/12/08 05:19:24;;;;;;;3.58;0.65;;;5.30;55.00;;;;;;5092026;27;34325;-77
2021/12/08 05:21:57;;;;;;;2.80;0.70;;;5.30;54.80;;;;;;5110346;27;34432;-77
2021/12/08 05:24:32;;;;;;;1.73;0.50;;;5.20;54.80;;;;;;5109311;27;35925;-77
2021/12/08 05:27:05;;;;;;;5.90;1.08;;;5.20;54.90;;;;;;5075224;27;34611;-77
2021/12/08 05:29:36;;;;;;;2.42;0.57;;;5.20;54.80;;;;;;5108457;27;34051;-77
2021/12/08 05:32:05;;;;;;;3.70;0.75;;;5.10;55.10;;;;;;5109782;27;34241;-77
2021/12/08 05:34:32;;;;;;;2.80;0.60;;;5.10;55.10;;;;;;5091650;27;35511;-77
2021/12/08 05:36:59;;;;;;;2.55;0.68;;;5.20;55.00;;;;;;5108495;27;34320;-77
2021/12/08 05:39:29;;;;;;;3.03;0.70;;;5.20;54.90;;;;;;5107669;27;34276;-77
2021/12/08 05:42:03;;;;;;;0.93;0.60;;;5.20;55.00;;;;;;5092984;27;34048;-77
2021/12/08 05:44:29;;;;;;;5.30;0.90;;;5.20;54.90;;;;;;5108479;27;35782;-77
2021/12/08 05:46:58;;;;;;;3.92;1.05;;;5.10;55.00;;;;;;5127183;27;34271;-77
2021/12/08 05:49:26;;;;;;;3.20;1.13;;;5.10;54.90;;;;;;5093933;27;34351;-77
2021/12/08 05:51:55;;;;;;;2.67;0.90;;;5.10;54.80;;;;;;5110231;27;34354;-77
2021/12/08 05:54:30;;;;;;;4.03;1.17;;;5.10;54.90;;;;;;5090934;27;36646;-77
2021/12/08 05:57:00;;;;;;;4.80;0.90;;;5.10;55.70;;;;;;5108965;27;34401;-77
2021/12/08 05:59:26;;;;;;;1.02;0.77;;;5.10;55.20;;;;;;5107890;27;34030;-77
2021/12/08 06:02:02;;;;;;;3.13;0.77;;;5.10;55.10;;;;;;5108570;27;34521;-77
2021/12/08 06:04:29;;;;;;;3.08;0.80;;;5.10;55.10;;;;;;5074328;27;36613;-77
2021/12/08 06:06:57;;;;;;;3.75;0.73;;;5.10;55.20;;;;;;5074857;27;34167;-77
2021/12/08 06:09:25;;;;;;;2.00;0.98;;;5.20;55.20;;;;;;5108124;27;34471;-77
2021/12/08 06:11:52;;;;;;;3.65;1.17;;;5.20;55.20;;;;;;5091284;27;34295;-77
2021/12/08 06:14:22;;;;;;;5.32;0.82;;;5.20;55.20;;;;;;5090671;27;35735;-77
2021/12/08 06:16:50;;;;;;;3.45;1.13;;;5.20;55.20;;;;;;5072957;27;34095;-76
2021/12/08 06:19:19;;;;;;;5.53;1.45;;;5.20;55.40;;;;;;5106223;27;34227;-77
2021/12/08 06:21:47;;;;;;;3.85;1.00;;;5.20;55.60;;;;;;5125586;27;34195;-77
2021/12/08 06:24:15;;;;;;;5.47;1.33;;;5.40;55.70;;;;;;5089235;27;36602;-77
2021/12/08 06:26:43;;;;;;;1.75;1.08;;;5.40;55.50;;;;;;5125187;27;34280;-77
2021/12/08 06:29:11;;;;;;;3.72;1.00;;;5.50;55.40;;;;;;5089788;27;34330;-77
2021/12/08 06:31:39;;;;;;;3.28;0.73;;;5.60;55.20;;;;;;5125853;27;34189;-77
2021/12/08 06:34:07;;;;;;;3.17;1.10;;;5.60;55.10;;;;;;5106889;27;36536;-77
2021/12/08 06:36:39;;;;;;;5.68;1.10;;;5.70;55.20;;;;;;5106370;27;34338;-77
2021/12/08 06:39:12;;;;;;;8.50;1.52;;;5.60;55.00;;;;;;5070187;28;34328;-77
2021/12/08 06:41:46;;;;;;;7.38;1.15;;;5.60;55.00;;;;;;5069755;28;34228;-77
2021/12/08 06:44:17;;;;;;;3.00;0.93;;;5.70;55.00;;;;;;5104948;28;34238;-76
2021/12/08 06:46:44;;;;;;;1.70;0.88;;;5.70;55.00;;;;;;5069353;28;34300;-77
2021/12/08 06:49:13;;;;;;;6.82;1.10;;;5.70;55.00;;;;;;5105138;28;34478;-77
2021/12/08 06:51:44;;;;;;;7.95;1.00;;;5.70;55.00;;;;;;5069747;28;34617;-77
2021/12/08 06:54:18;;;;;;;10.68;1.23;;;5.70;54.80;;;;;;5087515;28;34488;-77
2021/12/08 06:56:50;;;;;;;2.42;1.17;;;5.70;55.20;;;;;;5070093;28;34393;-76
2021/12/08 06:59:21;;;;;;;3.83;0.88;;;5.70;55.20;;;;;;5085608;28;34125;-76
2021/12/08 07:02:06;;;;;;;2.08;0.80;;;5.70;55.80;;;;;;5070178;28;34056;-77
2021/12/08 07:04:52;;;;;;;6.93;1.10;;;5.80;54.80;;;;;;5055925;28;36105;-77
2021/12/08 07:07:21;;;;;;;5.45;1.10;;;5.80;54.70;;;;;;5085609;28;34662;-77
2021/12/08 07:09:53;;;;;;;3.70;0.70;;;5.90;54.70;;;;;;5086260;28;34419;-77
2021/12/08 07:12:26;;;;;;;4.45;1.35;;;5.90;54.70;;;;;;5069172;28;34122;-76
2021/12/08 07:14:57;;;;;;;5.35;1.10;;;5.90;54.40;;;;;;5085974;28;36704;-76
2021/12/08 07:17:27;;;;;;;3.45;1.10;;;5.90;54.60;;;;;;5068900;28;34202;-76
2021/12/08 07:20:14;;;;;;;3.08;0.98;;;6.00;54.40;;;;;;5085683;28;34232;-77
2021/12/08 07:22:44;;;;;;;2.35;1.10;;;6.00;54.50;;;;;;5090580;28;34235;-77
2021/12/08 07:25:12;;;;;;;3.28;1.23;;;6.00;54.70;;;;;;5085509;28;35923;-77
2021/12/08 07:27:38;;;;;;;2.70;0.98;;;6.00;54.40;;;;;;5070502;28;34140;-77
2021/12/08 07:30:13;;;;;;;2.60;1.00;;;5.90;54.50;;;;;;5087676;28;34293;-77
2021/12/08 07:32:41;;;;;;;1.13;1.05;;;5.90;54.60;;;;;;5072213;28;34519;-76
2021/12/08 07:35:21;;;;;;;4.38;1.42;;;5.90;54.70;;;;;;5070064;28;35595;-77
2021/12/08 07:37:48;;;;;;;4.22;1.25;;;5.90;54.50;;;;;;5072481;28;34094;-77
2021/12/08 07:40:22;;;;;;;1.98;0.70;;;5.90;54.60;;;;;;5098570;28;34184;-77
2021/12/08 07:43:00;;;;;;;5.85;0.93;;;5.90;54.50;;;;;;5072677;28;34488;-76
2021/12/08 07:45:35;;;;;;;2.25;0.85;;;5.90;54.60;;;;;;5072690;28;35682;-77
2021/12/08 07:48:05;;;;;;;4.40;0.90;;;5.90;54.70;;;;;;5106915;28;34169;-77
2021/12/08 07:50:39;;;;;;;6.15;0.75;;;5.80;54.70;;;;;;5107102;28;34189;-77
2021/12/08 07:53:08;;;;;;;3.35;1.10;;;5.90;54.70;;;;;;5107240;28;34518;-76
2021/12/08 07:55:38;;;;;;;3.47;1.08;;;5.90;54.80;;;;;;5072208;28;35966;-77
2021/12/08 07:58:06;;;;;;;3.65;1.00;;;5.90;54.60;;;;;;5106267;28;34289;-77
2021/12/08 08:00:41;;;;;;;3.05;1.17;;;5.90;54.70;;;;;;5070736;28;34176;-77
2021/12/08 08:03:09;;;;;;;2.45;1.10;;;5.90;54.70;;;;;;5088668;28;34110;-77
2021/12/08 08:05:37;;;;;;;0.77;0.77;;;5.90;54.70;;;;;;5106570;28;34793;-76
2021/12/08 08:08:08;;;;;;;3.38;0.80;;;5.90;54.80;;;;;;5088357;28;34412;-76
2021/12/08 08:10:41;;;;;;;1.98;0.80;;;5.90;54.80;;;;;;5107465;27;34140;-76
2021/12/08 08:13:08;;;;;;;2.78;1.23;;;5.90;54.80;;;;;;5093900;28;34363;-77
2021/12/08 08:15:40;;;;;;;3.00;0.95;;;6.00;54.50;;;;;;5085286;28;36368;-77
2021/12/08 08:18:10;;;;;;;2.20;0.93;;;6.00;54.50;;;;;;5086324;28;34236;-76
2021/12/08 08:20:42;;;;;;;7.30;1.40;;;6.00;54.60;;;;;;5053196;28;34344;-77
2021/12/08 08:23:09;;;;;;;7.10;1.23;;;6.10;54.70;;;;;;5069736;28;34111;-77
2021/12/08 08:25:39;;;;;;;4.38;1.42;;;6.10;54.60;;;;;;5068657;28;35677;-76
2021/12/08 08:28:06;;;;;;;2.85;1.23;;;6.10;54.50;;;;;;5069028;28;34418;-77
2021/12/08 08:30:40;;;;;;;6.75;1.40;;;6.10;54.50;;;;;;5085250;28;34136;-77
2021/12/08 08:33:07;;;;;;;4.93;0.85;;;6.20;54.40;;;;;;5070410;28;34404;-77
2021/12/08 08:35:39;;;;;;;3.95;1.00;;;6.20;54.20;;;;;;5088298;28;35640;-76
2021/12/08 08:38:10;;;;;;;6.28;1.20;;;6.20;54.20;;;;;;5071463;28;34254;-76
2021/12/08 08:41:33;;;;;;;4.95;1.05;;;6.20;54.10;;;;;;5143631;27;33788;-76
2021/12/08 08:44:08;;;;;;;2.03;0.90;;;6.30;54.00;;;;;;5125222;27;34102;-77
2021/12/08 08:46:38;;;;;;;5.60;0.98;;;6.30;54.00;;;;;;5124886;27;34167;-76
2021/12/08 08:49:11;;;;;;;5.32;1.02;;;6.40;54.10;;;;;;5141689;27;34202;-76
2021/12/08 08:51:45;;;;;;;1.83;0.88;;;6.40;53.90;;;;;;5144830;27;34392;-76
2021/12/08 08:54:20;;;;;;;2.95;0.85;;;6.40;53.90;;;;;;5143177;27;34355;-77
2021/12/08 08:56:53;;;;;;;3.85;1.52;;;6.50;53.80;;;;;;5160714;27;34143;-77
2021/12/08 08:59:26;;;;;;;3.88;1.30;;;6.50;53.80;;;;;;5161025;27;35072;-77
2021/12/08 09:01:55;;;;;;;3.30;0.93;;;6.50;54.40;;;;;;5125208;27;34323;-77
2021/12/08 09:04:30;;;;;;;4.25;1.35;;;6.50;53.60;;;;;;5126283;27;34115;-77
2021/12/08 09:07:02;;;;;;;6.15;1.25;;;6.50;53.20;;;;;;5142951;27;34502;-77
2021/12/08 09:09:31;;;;;;;3.80;0.80;;;6.60;53.60;;;;;;5143909;27;35961;-77
2021/12/08 09:12:09;;;;;;;8.18;1.35;;;6.70;53.60;;;;;;5144615;27;34340;-76
2021/12/08 09:14:42;;;;;;;3.25;0.95;;;6.70;53.30;;;;;;5146090;27;34132;-77
2021/12/08 09:17:14;;;;;;;4.82;0.95;;;6.70;53.40;;;;;;5144978;27;34535;-77
2021/12/08 09:19:46;;;;;;;6.47;0.98;;;6.70;53.40;;;;;;5146451;27;34812;-77
2021/12/08 09:22:35;;;;;;;3.20;1.00;;;6.80;53.20;;;;;;5142672;27;34225;-77
2021/12/08 09:25:14;;;;;;;3.05;1.00;;;6.80;52.90;;;;;;5125299;27;34107;-76
2021/12/08 09:27:47;;;;;;;2.40;1.08;;;6.80;53.80;;;;;;5125046;27;34118;-76
2021/12/08 09:30:20;;;;;;;1.85;0.80;;;6.80;53.10;;;;;;5143408;27;34529;-76
2021/12/08 09:32:52;;;;;;;2.72;1.10;;;6.80;53.00;;;;;;5144172;27;34204;-77
2021/12/08 09:35:37;;;;;;;3.30;0.90;;;6.80;52.90;;;;;;5126731;27;34197;-76
2021/12/08 09:38:14;;;;;;;3.63;0.90;;;6.80;52.50;;;;;;5142939;27;34161;-77
2021/12/08 09:40:57;;;;;;;6.90;1.40;;;6.80;52.70;;;;;;5126942;27;36619;-76
2021/12/08 09:43:31;;;;;;;8.75;5.80;;;6.90;52.90;;;;;;5125969;27;34266;-76
2021/12/08 09:46:03;;;;;;;6.38;1.20;;;6.90;52.80;;;;;;5125132;27;34087;-76
2021/12/08 09:48:30;;;;;;;3.33;1.13;;;6.90;52.70;;;;;;5142640;27;35120;-76
2021/12/08 09:50:59;;;;;;;6.93;0.98;;;6.90;52.70;;;;;;5136948;27;36076;-77
2021/12/08 09:53:26;;;;;;;7.22;1.80;;;6.90;52.80;;;;;;5130591;27;34209;-76
2021/12/08 09:55:53;;;;;;;4.60;1.45;;;7.00;52.80;;;;;;5129793;27;34220;-76
2021/12/08 09:58:19;;;;;;;5.32;1.50;;;7.00;52.80;;;;;;5130839;27;34189;-76
2021/12/08 10:00:48;;;;;;;4.97;1.20;;;7.10;52.80;;;;;;5128831;27;36371;-76
2021/12/08 10:03:16;;;;;;;5.38;1.42;;;7.10;52.60;;;;;;5130349;27;34232;-76
2021/12/08 10:05:43;;;;;;;5.35;1.30;;;7.10;52.60;;;;;;5111877;27;34271;-76
2021/12/08 10:08:10;;;;;;;7.13;1.20;;;7.10;52.70;;;;;;5130979;27;34642;-76
2021/12/08 10:10:41;;;;;;;5.75;1.38;;;7.10;52.50;;;;;;5130925;27;35628;-76
2021/12/08 10:13:08;;;;;;;7.80;1.30;;;7.20;52.60;;;;;;5111519;27;33731;-76
2021/12/08 10:15:35;;;;;;;4.28;1.30;;;7.20;52.60;;;;;;5129258;27;34116;-76
2021/12/08 10:18:02;;;;;;;3.58;1.20;;;7.20;52.50;;;;;;5130328;27;34119;-76
2021/12/08 10:20:32;;;;;;;6.32;1.50;;;7.20;52.60;;;;;;5128048;27;35864;-76
2021/12/08 10:23:22;;;;;;;7.28;1.42;;;7.20;52.30;;;;;;5129343;27;34097;-76
2021/12/08 10:25:55;;;;;;;5.88;1.27;;;7.30;51.90;;;;;;5129488;27;34106;-75
2021/12/08 10:28:29;;;;;;;5.53;1.20;;;7.30;52.40;;;;;;5112717;27;34059;-76
2021/12/08 10:31:04;;;;;;;2.38;1.17;;;7.30;52.20;;;;;;5128998;27;34472;-76
2021/12/08 10:33:54;;;;;;;4.80;1.60;;;7.30;52.30;;;;;;5112629;27;34118;-76
2021/12/08 10:36:45;;;;;;;5.20;1.27;;;7.40;52.20;;;;;;5113415;27;34076;-76
2021/12/08 10:39:19;;;;;;;4.63;1.25;;;7.50;52.30;;;;;;5129130;27;34422;-77
2021/12/08 10:42:18;;;;;;;6.47;1.50;;;7.50;51.90;;;;;;5111760;27;35644;-76
2021/12/08 10:45:09;;;;;;;2.53;0.95;;;7.60;51.20;;;;;;5128247;27;34200;-76
2021/12/08 10:47:39;;;;;;;5.03;1.20;;;7.60;50.50;;;;;;5128975;27;34122;-76
2021/12/08 10:55:31;;;;;;;3.70;1.23;;;7.70;51.40;;;;;;5129366;27;34154;-76
2021/12/08 10:57:57;;;;;;;3.90;1.40;;;7.80;51.40;;;;;;5130342;27;34042;-76
2021/12/08 11:00:30;;;;;;;5.00;1.10;;;7.80;51.50;;;;;;5128643;27;34323;-76
2021/12/08 11:02:58;;;;;;;4.05;1.40;;;7.90;51.40;;;;;;5109197;27;36598;-76
2021/12/08 11:05:41;;;;;;;7.55;1.15;;;7.90;51.00;;;;;;5110545;27;34368;-76
2021/12/08 11:08:27;;;;;;;4.05;1.02;;;7.90;49.00;;;;;;5127012;27;34465;-76
2021/12/08 11:11:00;;;;;;;5.90;1.17;;;7.90;50.50;;;;;;5127043;27;34306;-76
2021/12/08 11:13:30;;;;;;;3.00;0.98;;;8.00;51.10;;;;;;5111466;27;35964;-76
2021/12/08 11:16:01;;;;;;;5.30;1.65;;;8.00;51.00;;;;;;5109980;27;34101;-76
2021/12/08 11:18:30;;;;;;;3.60;0.90;;;8.00;50.80;;;;;;5129039;27;34533;-76
2021/12/08 11:21:02;;;;;;;1.73;0.95;;;8.00;50.90;;;;;;5126750;27;34223;-76
2021/12/08 11:23:43;;;;;;;1.25;0.88;;;8.00;50.90;;;;;;5111049;27;35726;-76
2021/12/08 11:26:19;;;;;;;6.18;1.70;;;8.00;50.30;;;;;;5111892;27;34128;-76
2021/12/08 11:28:57;;;;;;;3.65;1.30;;;8.10;50.40;;;;;;5127101;27;34239;-76
2021/12/08 11:31:23;;;;;;;2.88;0.90;;;8.10;50.10;;;;;;5128798;27;34256;-76
2021/12/08 11:33:59;;;;;;;6.45;1.15;;;8.10;50.60;;;;;;5110795;27;35471;-76
2021/12/08 11:36:27;;;;;;;2.80;1.23;;;8.20;50.50;;;;;;5126804;27;34185;-76
2021/12/08 11:38:53;;;;;;;4.15;1.17;;;8.20;50.40;;;;;;5110426;27;34134;-76
2021/12/08 11:41:32;;;;;;;4.32;1.38;;;8.20;50.30;;;;;;5109553;27;34114;-76
2021/12/08 11:43:59;;;;;;;5.40;1.00;;;8.20;49.50;;;;;;5127867;27;34364;-76
2021/12/08 11:46:26;;;;;;;1.80;0.93;;;8.20;50.30;;;;;;5127941;27;34345;-76
2021/12/08 11:49:04;;;;;;;3.75;1.05;;;8.30;49.40;;;;;;5128343;27;33830;-75
2021/12/08 11:51:35;;;;;;;6.70;0.82;;;8.30;50.00;;;;;;5128460;27;34164;-76
2021/12/08 11:54:02;;;;;;;1.38;0.80;;;8.30;50.30;;;;;;5126759;27;34598;-76
2021/12/08 11:56:33;;;;;;;6.25;1.00;;;8.30;50.10;;;;;;5127428;27;34225;-76
2021/12/08 11:59:01;;;;;;;3.08;0.93;;;8.30;49.80;;;;;;5126337;27;34027;-76
2021/12/08 12:01:27;;;;;;;2.20;0.77;;;8.20;49.70;;;;;;5127676;27;33792;-76
2021/12/08 12:03:53;;;;;;;3.88;1.05;;;8.20;50.00;;;;;;5125918;27;36008;-76
2021/12/08 12:06:27;;;;;;;2.83;1.30;;;8.20;49.90;;;;;;5126771;27;34079;-76
2021/12/08 12:08:56;;;;;;;4.40;1.08;;;8.10;49.90;;;;;;5126729;27;34127;-76
2021/12/08 12:11:25;;;;;;;4.43;1.17;;;8.10;50.00;;;;;;5126686;27;34457;-76
2021/12/08 12:13:55;;;;;;;1.83;0.70;;;8.10;50.00;;;;;;5125704;27;35563;-76
2021/12/08 12:16:22;;;;;;;3.50;1.00;;;8.10;50.00;;;;;;5108491;27;34309;-76
2021/12/08 12:18:51;;;;;;;6.40;1.20;;;8.10;50.00;;;;;;5108467;27;34308;-76
2021/12/08 12:21:46;;;;;;;3.53;0.98;;;8.10;50.00;;;;;;5129248;27;34284;-75
2021/12/08 12:24:37;;;;;;;5.03;1.27;;;8.10;47.50;;;;;;5110870;27;36060;-76
2021/12/08 12:27:33;;;;;;;5.00;1.38;;;8.10;48.70;;;;;;5107969;27;34537;-76
2021/12/08 12:30:18;;;;;;;7.38;1.40;;;8.10;48.60;;;;;;5126130;27;34189;-76
2021/12/08 12:32:48;;;;;;;5.63;0.95;;;8.00;47.90;;;;;;5128713;27;34129;-75
2021/12/08 12:35:22;;;;;;;5.78;1.48;;;8.10;49.90;;;;;;5126821;27;35757;-75
2021/12/08 12:37:54;;;;;;;4.28;1.20;;;8.10;49.80;;;;;;5126107;27;34173;-76
2021/12/08 12:40:31;;;;;;;7.07;2.03;;;8.10;49.80;;;;;;5126744;27;34282;-76
2021/12/08 12:42:59;;;;;;;3.55;1.17;;;8.10;48.60;;;;;;5125639;27;33870;-76
2021/12/08 12:45:33;;;;;;;5.78;1.20;;;8.00;50.00;;;;;;5127661;27;34801;-76
2021/12/08 12:48:18;;;;;;;3.20;1.10;;;8.00;49.10;;;;;;5124996;27;34154;-76
2021/12/08 12:51:01;;;;;;;5.05;1.30;;;8.00;48.60;;;;;;5127798;27;34206;-76
2021/12/08 12:53:33;;;;;;;2.20;0.80;;;8.10;49.00;;;;;;5127070;27;34320;-76
2021/12/08 12:55:59;;;;;;;4.25;1.42;;;8.00;49.70;;;;;;5111465;27;36750;-75
2021/12/08 12:58:42;;;;;;;5.15;1.00;;;8.00;49.80;;;;;;5128572;27;34290;-76
2021/12/08 13:01:11;;;;;;;2.72;1.13;;;8.10;48.90;;;;;;5128959;27;34146;-76
2021/12/08 13:03:48;;;;;;;3.85;1.05;;;8.10;50.00;;;;;;5112907;27;34194;-76
2021/12/08 13:06:36;;;;;;;4.43;0.80;;;8.00;49.30;;;;;;5107612;28;36760;-76
2021/12/08 13:09:04;;;;;;;5.70;1.00;;;8.00;49.60;;;;;;5093759;27;34083;-76
2021/12/08 13:11:45;;;;;;;2.67;1.10;;;8.10;49.80;;;;;;5108348;28;34303;-76
2021/12/08 13:14:27;;;;;;;4.15;1.15;;;8.10;49.80;;;;;;5093524;28;34011;-76
2021/12/08 13:17:11;;;;;;;3.53;0.82;;;8.10;48.50;;;;;;5105415;28;35949;-76
2021/12/08 13:19:40;;;;;;;4.60;0.82;;;8.00;48.40;;;;;;5091292;28;34342;-76
2021/12/08 13:22:06;;;;;;;1.48;0.90;;;8.00;49.60;;;;;;5108629;28;34163;-76
2021/12/08 13:24:39;;;;;;;5.43;1.17;;;8.00;49.60;;;;;;5109278;28;33922;-76
2021/12/08 13:27:10;;;;;;;2.55;0.80;;;7.90;48.40;;;;;;5109429;28;34401;-76
2021/12/08 13:29:41;;;;;;;3.92;1.25;;;7.90;49.30;;;;;;5146942;27;34284;-76
2021/12/08 13:32:13;;;;;;;2.05;0.88;;;7.90;49.60;;;;;;5130708;27;34004;-76
2021/12/08 13:34:43;;;;;;;3.40;1.27;;;7.90;49.50;;;;;;5097221;28;34121;-76
2021/12/08 13:37:16;;;;;;;1.67;0.77;;;8.00;49.50;;;;;;5112433;28;34314;-76
2021/12/08 13:39:44;;;;;;;5.05;1.00;;;8.00;49.30;;;;;;5095044;28;34215;-76
2021/12/08 13:42:14;;;;;;;5.25;1.38;;;8.00;49.50;;;;;;5113460;28;34098;-76
2021/12/08 13:44:51;;;;;;;1.80;0.73;;;8.00;49.50;;;;;;5095819;28;34296;-76
2021/12/08 13:47:37;;;;;;;7.18;1.33;;;8.00;49.40;;;;;;5096244;28;36263;-76
2021/12/08 13:50:13;;;;;;;3.22;1.13;;;8.10;48.40;;;;;;5111894;28;34427;-76
2021/12/08 13:52:43;;;;;;;3.20;1.13;;;8.10;48.60;;;;;;5095536;28;34146;-75